Terminal Aerodrome Forecast
Issued by NWS

Home | Current Version | Previous Version | Text Only | Print | Product List | Glossary On
Versions: 1 2 3 4 5 6 7 8 9 10 11 12 13 14 15 16
000
FTUS42 KFFC 221720
TAFPDK
TAF
KPDK 221720Z 2218/2318 06003KT P6SM SCT050
     FM230100 VRB03KT P6SM FEW060 SCT150
     FM231600 06003KT P6SM SCT050=

USA.gov is the U.S. government's official web portal to all federal, state and local government web resources and services.